createdAt,value
2019-04-14T00:01:02.227Z,16.90
2019-04-14T00:03:39.016Z,18.77
2019-04-14T00:06:11.274Z,21.47
2019-04-14T00:08:43.743Z,20.10
2019-04-14T00:11:16.909Z,19.97
2019-04-14T00:13:48.562Z,19.87
2019-04-14T00:16:20.638Z,18.30
2019-04-14T00:21:23.650Z,15.20
2019-04-14T00:23:55.198Z,20.20
2019-04-14T00:26:31.979Z,19.67
2019-04-14T00:29:04.487Z,23.27
2019-04-14T00:31:37.122Z,20.40
2019-04-14T00:34:22.673Z,23.00
2019-04-14T00:37:12.206Z,21.97
2019-04-14T00:39:48.954Z,23.17
2019-04-14T00:42:28.229Z,19.43
2019-04-14T00:45:02.738Z,19.70
2019-04-14T00:47:50.868Z,18.30
2019-04-14T00:50:10.286Z,17.40
2019-04-14T00:52:41.595Z,19.70
2019-04-14T00:55:13.994Z,19.57
2019-04-14T00:57:46.302Z,22.03
2019-04-14T01:00:19.233Z,19.07
2019-04-14T01:02:51.568Z,21.57
2019-04-14T01:05:24.104Z,23.50
2019-04-14T01:07:56.533Z,17.90
2019-04-14T01:10:28.178Z,18.60
2019-04-14T01:13:00.532Z,19.40
2019-04-14T01:15:44.850Z,19.70
2019-04-14T01:18:05.757Z,17.40
2019-04-14T01:20:38.435Z,21.73
2019-04-14T01:23:10.648Z,19.07
2019-04-14T01:25:43.256Z,16.97
2019-04-14T01:28:15.741Z,23.27
2019-04-14T01:30:48.025Z,19.80
2019-04-14T01:33:20.503Z,25.30
2019-04-14T01:35:53.127Z,22.70
2019-04-14T01:38:25.535Z,19.40
2019-04-14T01:40:57.763Z,24.23
2019-04-14T01:43:29.985Z,21.37
2019-04-14T01:46:10.533Z,21.97
2019-04-14T01:48:34.662Z,23.10
2019-04-14T01:54:13.291Z,24.10
2019-04-14T01:57:00.285Z,21.53
2019-04-14T01:59:32.642Z,16.87
2019-04-14T02:04:37.527Z,21.10
2019-04-14T02:09:40.140Z,23.03
2019-04-14T02:12:12.686Z,21.73
2019-04-14T02:14:45.150Z,21.57
2019-04-14T02:17:17.754Z,21.90
2019-04-14T02:19:50.214Z,18.70
2019-04-14T02:22:22.394Z,16.07
2019-04-14T02:24:54.914Z,20.03
2019-04-14T02:27:27.406Z,19.17
2019-04-14T02:30:00.191Z,17.47
2019-04-14T02:33:11.117Z,16.27
2019-04-14T02:35:40.726Z,20.20
2019-04-14T02:40:43.805Z,19.47
2019-04-14T02:43:16.498Z,17.63
2019-04-14T02:50:47.716Z,19.50
2019-04-14T02:53:23.987Z,17.07
2019-04-14T02:58:40.288Z,16.47
2019-04-14T03:01:21.281Z,15.13
2019-04-14T03:06:10.416Z,17.03
2019-04-14T03:08:51.995Z,16.33
2019-04-14T03:11:20.664Z,19.73
2019-04-14T03:16:49.074Z,19.83
2019-04-14T03:19:00.042Z,17.87
2019-04-14T03:21:45.182Z,14.60
2019-04-14T03:24:26.960Z,18.43
2019-04-14T03:29:51.971Z,13.47
2019-04-14T03:32:39.043Z,14.13
2019-04-14T03:35:30.495Z,13.83
2019-04-14T03:37:45.299Z,18.07
2019-04-14T03:39:51.188Z,16.13
2019-04-14T03:42:35.557Z,12.53
2019-04-14T03:45:11.172Z,21.37
2019-04-14T03:47:34.835Z,16.80
2019-04-14T03:50:12.108Z,14.83
2019-04-14T03:53:15.834Z,14.17
2019-04-14T03:55:05.755Z,13.97
2019-04-14T03:57:21.504Z,16.33
2019-04-14T03:59:54.172Z,14.83
2019-04-14T04:02:25.599Z,17.73
2019-04-14T04:04:57.729Z,14.93
2019-04-14T04:10:05.009Z,18.67
2019-04-14T04:12:37.791Z,16.50
2019-04-14T04:15:10.396Z,16.60
2019-04-14T04:17:49.511Z,16.40
2019-04-14T04:20:26.367Z,16.93
2019-04-14T04:23:00.849Z,17.37
2019-04-14T04:25:37.868Z,15.97
2019-04-14T04:28:27.866Z,14.90
2019-04-14T04:31:11.001Z,15.03
2019-04-14T04:33:44.222Z,17.90
2019-04-14T04:36:36.343Z,16.03
2019-04-14T04:39:14.893Z,12.67
2019-04-14T04:41:47.272Z,14.37
2019-04-14T04:44:18.615Z,15.20
2019-04-14T04:46:50.482Z,14.63
2019-04-14T04:49:26.042Z,13.63
2019-04-14T04:51:57.186Z,17.93
2019-04-14T04:54:30.106Z,14.77
2019-04-14T04:57:02.481Z,14.17
2019-04-14T04:59:34.341Z,15.87
2019-04-14T05:02:07.215Z,14.53
2019-04-14T05:04:39.438Z,14.67
2019-04-14T05:07:12.173Z,15.43
2019-04-14T05:10:02.657Z,15.23
2019-04-14T05:12:39.219Z,15.67
2019-04-14T05:15:29.110Z,16.87
2019-04-14T05:18:00.548Z,13.90
2019-04-14T05:20:31.994Z,14.50
2019-04-14T05:23:03.746Z,14.90
2019-04-14T05:25:36.473Z,17.07
2019-04-14T05:28:09.112Z,13.60
2019-04-14T05:30:42.025Z,15.80
2019-04-14T05:33:14.125Z,15.10
2019-04-14T05:35:46.453Z,16.20
2019-04-14T05:38:19.066Z,14.83
2019-04-14T05:40:52.246Z,13.00
2019-04-14T05:43:36.982Z,16.80
2019-04-14T05:45:56.688Z,16.13
2019-04-14T05:48:29.271Z,15.47
2019-04-14T05:51:02.075Z,11.97
2019-04-14T05:53:33.445Z,13.37
2019-04-14T05:56:05.770Z,11.73
2019-04-14T05:58:38.205Z,13.90
2019-04-14T06:01:11.333Z,10.00
2019-04-14T06:03:43.275Z,12.07
2019-04-14T06:06:16.459Z,10.80
2019-04-14T06:08:49.841Z,9.97
2019-04-14T06:11:22.535Z,10.00
2019-04-14T06:13:59.796Z,10.23
2019-04-14T06:19:02.529Z,11.37
2019-04-14T06:24:18.199Z,12.37
2019-04-14T06:26:51.032Z,9.90
2019-04-14T06:29:24.244Z,9.73
2019-04-14T06:31:57.226Z,8.17
2019-04-14T06:34:36.456Z,9.23
2019-04-14T06:37:26.035Z,9.23
2019-04-14T06:40:01.334Z,9.80
2019-04-14T06:42:33.039Z,9.70
2019-04-14T06:45:04.558Z,8.70
2019-04-14T06:47:36.000Z,10.03
2019-04-14T06:50:07.959Z,8.10
2019-04-14T06:52:39.766Z,8.40
2019-04-14T06:57:42.018Z,9.20
2019-04-14T07:00:13.308Z,8.83
2019-04-14T07:02:45.515Z,10.43
2019-04-14T07:07:57.044Z,10.53
2019-04-14T07:12:53.385Z,8.40
2019-04-14T07:15:25.077Z,10.60
2019-04-14T07:17:56.476Z,10.43
2019-04-14T07:20:28.038Z,9.37
2019-04-14T07:22:59.348Z,12.83
2019-04-14T07:25:31.033Z,11.60
2019-04-14T07:28:02.531Z,13.37
2019-04-14T07:30:33.651Z,13.90
2019-04-14T07:33:12.440Z,10.97
2019-04-14T07:36:01.773Z,12.00
2019-04-14T07:38:50.319Z,13.77
2019-04-14T07:41:38.804Z,16.83
2019-04-14T07:46:54.309Z,16.23
2019-04-14T07:49:42.799Z,11.80
2019-04-14T07:52:25.313Z,14.13
2019-04-14T07:55:07.946Z,13.80
2019-04-14T07:57:54.108Z,17.27
2019-04-14T08:00:33.296Z,16.97
2019-04-14T08:03:07.224Z,15.43
2019-04-14T08:05:40.224Z,14.70
2019-04-14T08:08:12.286Z,11.63
2019-04-14T08:10:43.591Z,13.53
2019-04-14T08:13:15.025Z,15.77
2019-04-14T08:15:46.497Z,13.40
2019-04-14T08:18:18.009Z,13.20
2019-04-14T08:20:49.315Z,15.10
2019-04-14T08:23:21.368Z,17.77
2019-04-14T08:25:52.860Z,15.00
2019-04-14T08:28:25.277Z,17.57
2019-04-14T08:30:56.863Z,15.43
2019-04-14T08:33:28.256Z,15.27
2019-04-14T08:36:00.225Z,16.73
2019-04-14T08:38:34.547Z,15.80
2019-04-14T08:41:05.070Z,18.33
2019-04-14T08:43:57.238Z,16.63
2019-04-14T08:46:47.292Z,22.03
2019-04-14T08:49:26.407Z,17.03
2019-04-14T08:51:59.763Z,19.40
2019-04-14T08:57:24.655Z,19.80
2019-04-14T08:59:57.576Z,21.50
2019-04-14T09:02:33.936Z,20.53
2019-04-14T09:05:08.249Z,18.93
2019-04-14T09:07:58.032Z,16.57
2019-04-14T09:10:32.216Z,19.07
2019-04-14T09:13:04.489Z,17.33
2019-04-14T09:15:36.006Z,16.23
2019-04-14T09:18:07.322Z,16.97
